Time;durP1;ratioP1;P1;durP2;ratioP2;P2;SDS_P1;SDS_P2;PMS_P1;PMS_P2;Temp;Humidity;BMP_temperature;BMP_pressure;BME280_temperature;BME280_humidity;BME280_pressure;Samples;Min_cycle;Max_cycle;Signal;HPM_P1;HPM_P2
2022/04/17 00:00:11;;;;;;;0.75;0.75;;;;;;;2.66;100.00;102830.16;5040130;28;20060;-80
2022/04/17 00:02:40;;;;;;;1.08;1.00;;;;;;;2.68;100.00;102822.75;5050063;28;20049;-80
2022/04/17 00:05:13;;;;;;;0.90;0.90;;;;;;;2.69;100.00;102821.75;5042419;28;20398;-80
2022/04/17 00:07:41;;;;;;;0.82;0.82;;;;;;;2.69;100.00;102820.91;5042000;28;20472;-80
2022/04/17 00:10:14;;;;;;;1.13;0.90;;;;;;;2.60;100.00;102822.78;5046464;28;20060;-81
2022/04/17 00:12:48;;;;;;;0.98;0.90;;;;;;;2.58;100.00;102816.75;5047840;28;20040;-79
2022/04/17 00:15:21;;;;;;;0.95;0.95;;;;;;;2.55;100.00;102811.72;5043156;28;20060;-80
2022/04/17 00:17:54;;;;;;;0.90;0.90;;;;;;;2.55;100.00;102807.19;5043575;28;20056;-80
2022/04/17 00:20:23;;;;;;;1.05;1.05;;;;;;;2.55;100.00;102812.56;5050244;28;20417;-80
2022/04/17 00:22:56;;;;;;;0.95;0.95;;;;;;;2.50;100.00;102798.81;5044500;28;20436;-80
2022/04/17 00:25:29;;;;;;;0.98;0.98;;;;;;;2.56;100.00;102813.41;5051028;28;20055;-80
2022/04/17 00:28:05;;;;;;;0.98;0.90;;;;;;;2.58;100.00;102810.53;5050652;28;20049;-80
2022/04/17 00:30:38;;;;;;;0.80;0.80;;;;;;;2.55;100.00;102804.50;5051387;28;20481;-79
2022/04/17 00:33:11;;;;;;;0.98;0.90;;;;;;;2.56;100.00;102799.97;5051500;28;20045;-80
2022/04/17 00:35:45;;;;;;;0.80;0.80;;;;;;;2.53;100.00;102786.88;5031585;28;20052;-81
2022/04/17 00:38:18;;;;;;;1.10;0.90;;;;;;;2.47;100.00;102792.94;5029797;28;20056;-81
2022/04/17 00:40:53;;;;;;;0.80;0.80;;;;;;;2.42;100.00;102797.97;5030430;28;20049;-80
2022/04/17 00:43:30;;;;;;;0.90;0.90;;;;;;;2.45;100.00;102793.09;5031491;28;20077;-80
2022/04/17 00:46:03;;;;;;;0.88;0.88;;;;;;;2.46;100.00;102785.88;5030096;28;20057;-79
2022/04/17 00:48:31;;;;;;;1.02;1.00;;;;;;;2.46;100.00;102791.25;5029772;28;20529;-79
2022/04/17 00:51:06;;;;;;;0.90;0.90;;;;;;;2.36;100.00;102783.38;5047498;28;20503;-80
2022/04/17 00:53:41;;;;;;;1.00;1.00;;;;;;;2.34;100.00;102780.88;5071354;28;20052;-80
2022/04/17 00:56:14;;;;;;;0.90;0.90;;;;;;;2.34;100.00;102778.19;5071392;28;20047;-80
2022/04/17 00:58:49;;;;;;;1.17;1.08;;;;;;;2.38;100.00;102779.53;5069084;28;20060;-80
2022/04/17 01:01:22;;;;;;;0.95;0.90;;;;;;;2.40;100.00;102773.97;5073645;28;20049;-79
2022/04/17 01:03:55;;;;;;;0.98;0.90;;;;;;;2.35;100.00;102774.50;5074843;28;20056;-80
2022/04/17 01:06:28;;;;;;;0.90;0.90;;;;;;;2.35;100.00;102769.13;5074859;28;20048;-80
2022/04/17 01:09:02;;;;;;;0.90;0.90;;;;;;;2.28;100.00;102765.47;5058848;28;20041;-80
2022/04/17 01:11:38;;;;;;;1.70;1.10;;;;;;;2.35;100.00;102779.88;5053229;28;20056;-80
2022/04/17 01:14:12;;;;;;;0.90;0.90;;;;;;;2.35;100.00;102779.03;5053377;28;20079;-79
2022/04/17 01:16:45;;;;;;;1.20;1.10;;;;;;;2.28;100.00;102772.66;5053093;28;20413;-80
2022/04/17 01:19:14;;;;;;;1.10;1.00;;;;;;;2.17;100.00;102774.72;5051584;28;20068;-79
2022/04/17 01:21:49;;;;;;;1.20;1.10;;;;;;;2.20;100.00;102773.53;5054398;28;20492;-80
2022/04/17 01:27:13;;;;;;;1.10;1.00;;;;;;;2.23;100.00;102770.50;5054474;28;20041;-80
2022/04/17 01:29:42;;;;;;;1.17;1.08;;;;;;;2.18;100.00;102773.72;5053156;28;20075;-79
2022/04/17 01:32:11;;;;;;;0.90;0.90;;;;;;;2.16;100.00;102772.22;5053090;28;20044;-80
2022/04/17 01:34:44;;;;;;;1.08;1.00;;;;;;;2.07;100.00;102775.91;5052993;28;20056;-79
2022/04/17 01:37:19;;;;;;;0.98;0.98;;;;;;;2.12;100.00;102776.25;5052347;28;20468;-80
2022/04/17 01:39:52;;;;;;;1.00;1.00;;;;;;;2.13;100.00;102770.72;5052991;28;20477;-80
2022/04/17 01:42:20;;;;;;;1.20;1.10;;;;;;;2.12;100.00;102776.25;5062687;28;20052;-80
2022/04/17 01:44:53;;;;;;;1.00;1.00;;;;;;;2.04;100.00;102766.34;5072717;28;20055;-80
2022/04/17 01:47:26;;;;;;;0.80;0.80;;;;;;;1.99;100.00;102768.72;5073680;28;20414;-80
2022/04/17 01:50:00;;;;;;;1.00;0.90;;;;;;;1.85;100.00;102759.50;5074048;28;20056;-80
2022/04/17 01:52:34;;;;;;;1.15;1.05;;;;;;;1.82;100.00;102760.72;5074042;28;20044;-80
2022/04/17 01:55:08;;;;;;;0.90;0.90;;;;;;;1.72;100.00;102760.03;5060560;28;20053;-80
2022/04/17 01:57:37;;;;;;;1.10;1.00;;;;;;;1.75;100.00;102756.16;5043944;28;20049;-79
2022/04/17 02:00:06;;;;;;;0.90;0.90;;;;;;;1.79;100.00;102760.19;5048188;28;20485;-80
2022/04/17 02:02:39;;;;;;;1.10;1.00;;;;;;;1.67;100.00;102749.81;5053412;28;20047;-80
2022/04/17 02:05:13;;;;;;;1.00;1.00;;;;;;;1.65;100.00;102751.81;5052284;28;20489;-80
2022/04/17 02:07:42;;;;;;;1.13;1.10;;;;;;;1.67;100.00;102752.50;5048133;28;20402;-80
2022/04/17 02:10:19;;;;;;;0.93;0.93;;;;;;;1.65;100.00;102741.06;5051980;28;20052;-80
2022/04/17 02:12:52;;;;;;;1.27;1.17;;;;;;;1.63;100.00;102736.88;5051248;28;20051;-80
2022/04/17 02:15:25;;;;;;;1.00;1.00;;;;;;;1.58;100.00;102728.53;5053665;28;20052;-80
2022/04/17 02:17:59;;;;;;;1.20;1.10;;;;;;;1.67;100.00;102736.38;5048004;28;20045;-80
2022/04/17 02:20:32;;;;;;;1.35;1.25;;;;;;;1.63;100.00;102735.06;5049081;28;20041;-80
2022/04/17 02:23:07;;;;;;;1.23;1.13;;;;;;;1.67;100.00;102730.16;5048515;28;20064;-80
2022/04/17 02:25:40;;;;;;;1.30;1.20;;;;;;;1.69;100.00;102728.16;5044657;28;20052;-80
2022/04/17 02:28:14;;;;;;;1.33;1.23;;;;;;;1.70;100.00;102724.47;5048000;28;20048;-80
2022/04/17 02:30:47;;;;;;;1.20;1.10;;;;;;;1.72;100.00;102730.50;5046619;28;20430;-80
2022/04/17 02:33:20;;;;;;;1.00;1.00;;;;;;;1.76;100.00;102717.59;5058607;28;20053;-80
2022/04/17 02:35:48;;;;;;;1.00;1.00;;;;;;;1.77;100.00;102719.25;5044769;28;20056;-80
2022/04/17 02:38:23;;;;;;;1.30;1.20;;;;;;;1.86;100.00;102711.03;5042763;28;20046;-80
2022/04/17 02:40:56;;;;;;;1.00;1.00;;;;;;;1.87;100.00;102698.44;5046487;28;20401;-80
2022/04/17 02:43:29;;;;;;;1.10;1.10;;;;;;;1.95;100.00;102705.63;5055439;28;20067;-80
2022/04/17 02:46:02;;;;;;;1.00;1.00;;;;;;;1.92;100.00;102708.66;5057293;28;20052;-79
2022/04/17 02:48:34;;;;;;;0.98;0.98;;;;;;;2.00;100.00;102705.94;5052129;28;20041;-80
2022/04/17 02:51:07;;;;;;;1.08;1.08;;;;;;;2.01;100.00;102697.69;5059036;28;20049;-80
2022/04/17 02:53:42;;;;;;;1.17;1.08;;;;;;;2.01;100.00;102707.63;5040913;28;20051;-80
2022/04/17 02:56:15;;;;;;;1.00;1.00;;;;;;;1.99;100.00;102691.69;5055453;28;20424;-80
2022/04/17 02:58:43;;;;;;;1.00;1.00;;;;;;;2.01;100.00;102695.03;5044014;28;20049;-80
2022/04/17 03:06:53;;;;;;;1.05;1.05;;;;;;;1.99;100.00;102698.88;5050955;28;20685;-80
2022/04/17 03:09:27;;;;;;;1.10;1.00;;;;;;;1.97;100.00;102692.88;5042257;28;20072;-80
2022/04/17 03:12:00;;;;;;;1.00;1.00;;;;;;;1.92;100.00;102704.13;5041818;28;20053;-80
2022/04/17 03:14:28;;;;;;;0.93;0.93;;;;;;;1.94;100.00;102693.22;5048093;28;20053;-79
2022/04/17 03:17:04;;;;;;;1.30;1.20;;;;;;;1.86;100.00;102686.00;5058402;28;20516;-80
2022/04/17 03:19:32;;;;;;;1.08;1.08;;;;;;;1.80;100.00;102692.09;5048320;28;20042;-80
2022/04/17 03:22:05;;;;;;;1.10;1.00;;;;;;;1.80;100.00;102692.91;5046694;28;20060;-80
2022/04/17 03:24:40;;;;;;;1.17;1.05;;;;;;;1.86;100.00;102691.38;5042046;28;20492;-80
2022/04/17 03:27:13;;;;;;;0.93;0.93;;;;;;;1.76;100.00;102696.13;5046934;28;20059;-80
2022/04/17 03:29:46;;;;;;;1.00;1.00;;;;;;;1.67;100.00;102688.06;5056157;28;20048;-80
2022/04/17 03:32:19;;;;;;;0.90;0.90;;;;;;;1.65;100.00;102692.75;5052902;28;20040;-79
2022/04/17 03:34:47;;;;;;;1.00;1.00;;;;;;;1.57;100.00;102695.47;5061276;28;20044;-80
2022/04/17 03:37:16;;;;;;;0.88;0.88;;;;;;;1.43;100.00;102685.44;5052140;28;20667;-80
2022/04/17 03:39:51;;;;;;;1.10;1.00;;;;;;;1.37;100.00;102692.31;5049646;28;20048;-79
2022/04/17 03:42:24;;;;;;;1.80;1.50;;;;;;;1.04;100.00;102702.16;5044234;28;20053;-80
2022/04/17 03:44:57;;;;;;;2.45;1.40;;;;;;;0.88;100.00;102711.03;5046968;28;20064;-80
2022/04/17 03:47:30;;;;;;;1.30;1.20;;;;;;;0.72;100.00;102704.66;5051349;28;20482;-80
2022/04/17 03:49:59;;;;;;;1.20;1.10;;;;;;;0.75;100.00;102712.38;5051648;28;20040;-79
2022/04/17 03:52:39;;;;;;;1.00;1.00;;;;;;;0.40;100.00;102700.03;5041892;28;20041;-79
2022/04/17 03:55:14;;;;;;;1.20;1.10;;;;;;;0.59;100.00;102709.63;5053524;28;20615;-79
2022/04/17 03:57:43;;;;;;;1.10;1.10;;;;;;;0.39;100.00;102707.25;5045031;28;20068;-79
2022/04/17 04:00:17;;;;;;;1.30;1.20;;;;;;;0.51;100.00;102705.09;5035921;28;20405;-80
2022/04/17 04:02:52;;;;;;;1.42;1.30;;;;;;;0.54;100.00;102710.13;5046399;28;20071;-79
2022/04/17 04:05:25;;;;;;;1.40;1.30;;;;;;;0.53;100.00;102711.13;5049943;28;20065;-79
2022/04/17 04:07:58;;;;;;;1.55;1.45;;;;;;;0.46;100.00;102708.25;5048009;28;20064;-80
2022/04/17 04:10:32;;;;;;;1.70;1.60;;;;;;;0.34;100.00;102701.53;5048780;28;20060;-79
2022/04/17 04:13:05;;;;;;;1.60;1.50;;;;;;;0.22;100.00;102703.66;5038613;28;20391;-79
2022/04/17 04:15:38;;;;;;;1.58;1.48;;;;;;;0.11;100.00;102711.97;5048322;28;20056;-80
2022/04/17 04:18:11;;;;;;;1.60;1.50;;;;;;;0.23;100.00;102696.47;5051245;28;20057;-80
2022/04/17 04:20:40;;;;;;;1.75;1.65;;;;;;;0.08;100.00;102707.75;5049934;28;20044;-80
2022/04/17 04:23:13;;;;;;;1.75;1.65;;;;;;;0.04;100.00;102702.91;5050592;28;20056;-80
2022/04/17 04:25:47;;;;;;;1.70;1.60;;;;;;;0.07;100.00;102698.06;5054043;28;20061;-80
2022/04/17 04:28:36;;;;;;;1.85;1.75;;;;;;;0.05;100.00;102705.41;5046502;28;20057;-79
2022/04/17 04:31:11;;;;;;;1.85;1.75;;;;;;;0.08;100.00;102701.56;5046564;28;20069;-79
2022/04/17 04:33:44;;;;;;;2.30;2.10;;;;;;;0.16;100.00;102707.81;5056604;28;20385;-79
2022/04/17 04:36:18;;;;;;;2.30;2.20;;;;;;;0.29;100.00;102718.09;5049643;28;20053;-80
2022/04/17 04:38:51;;;;;;;2.80;2.60;;;;;;;0.24;100.00;102707.00;5049264;28;20041;-80
2022/04/17 04:41:25;;;;;;;2.70;2.50;;;;;;;0.36;100.00;102718.28;5059611;28;20401;-79
2022/04/17 04:43:58;;;;;;;2.92;2.72;;;;;;;0.46;100.00;102718.97;5049311;28;20041;-80
2022/04/17 04:46:31;;;;;;;3.60;3.40;;;;;;;0.46;100.00;102721.66;5058973;28;20049;-79
2022/04/17 04:51:55;;;;;;;4.25;3.95;;;;;;;0.53;100.00;102715.66;5041294;28;20049;-80
2022/04/17 04:54:28;;;;;;;4.63;4.32;;;;;;;0.60;100.00;102716.69;5050619;28;20425;-79
2022/04/17 04:57:03;;;;;;;4.43;4.13;;;;;;;0.62;100.00;102720.03;5053826;28;20051;-79
2022/04/17 04:59:31;;;;;;;4.78;4.47;;;;;;;0.67;100.00;102715.84;5060156;28;20068;-79
2022/04/17 05:02:05;;;;;;;6.15;5.65;;;;;;;0.66;100.00;102716.03;5043843;28;20044;-79
2022/04/17 05:04:33;;;;;;;6.15;5.68;;;;;;;0.75;100.00;102720.41;5066395;28;20049;-80
2022/04/17 05:07:01;;;;;;;7.22;6.72;;;;;;;0.85;100.00;102721.09;5057416;28;20413;-79
2022/04/17 05:09:35;;;;;;;5.90;5.50;;;;;;;0.83;100.00;102722.28;5045913;28;20044;-80
2022/04/17 05:12:05;;;;;;;6.63;6.13;;;;;;;0.85;100.00;102725.63;5041585;28;20524;-80
2022/04/17 05:14:41;;;;;;;7.18;6.68;;;;;;;1.21;100.00;102724.50;5050574;28;20036;-80
2022/04/17 05:17:14;;;;;;;6.78;6.28;;;;;;;1.66;100.00;102725.81;5043418;28;20057;-80
2022/04/17 05:19:50;;;;;;;6.70;6.20;;;;;;;1.65;100.00;102718.78;5051523;28;20048;-80
2022/04/17 05:22:31;;;;;;;6.75;6.25;;;;;;;1.56;100.00;102719.78;5045244;28;20061;-79
2022/04/17 05:25:05;;;;;;;5.97;5.57;;;;;;;1.56;100.00;102715.28;5046915;28;20049;-80
2022/04/17 05:27:39;;;;;;;6.35;5.88;;;;;;;1.66;100.00;102728.50;5048372;28;20409;-79
2022/04/17 05:30:12;;;;;;;6.30;5.80;;;;;;;1.71;100.00;102718.09;5065878;28;20493;-80
2022/04/17 05:32:45;;;;;;;6.65;6.15;;;;;;;1.82;100.00;102711.53;5052828;28;20493;-80
2022/04/17 05:35:14;;;;;;;5.95;5.55;;;;;;;1.88;100.00;102716.22;5060549;28;20060;-79
2022/04/17 05:37:42;;;;;;;6.22;5.82;;;;;;;1.93;100.00;102716.53;5053309;28;20049;-80
2022/04/17 05:40:15;;;;;;;6.63;6.13;;;;;;;1.89;100.00;102711.69;5056862;28;20053;-80
2022/04/17 05:42:49;;;;;;;6.50;6.00;;;;;;;2.02;100.00;102712.00;5052484;28;20040;-80
2022/04/17 05:45:23;;;;;;;7.25;6.75;;;;;;;2.10;100.00;102706.59;5059689;28;20037;-80
2022/04/17 05:47:51;;;;;;;7.68;7.18;;;;;;;2.11;100.00;102700.19;5064217;28;20048;-80
2022/04/17 05:50:20;;;;;;;7.35;6.85;;;;;;;2.23;100.00;102705.22;5070020;28;20103;-80
2022/04/17 05:52:53;;;;;;;7.32;6.82;;;;;;;2.35;100.00;102707.31;5054209;28;20048;-80
2022/04/17 05:55:27;;;;;;;7.30;6.80;;;;;;;2.51;100.00;102702.88;5057542;28;20041;-79
2022/04/17 05:57:56;;;;;;;7.32;6.82;;;;;;;2.65;100.00;102704.84;5049132;28;20044;-80
2022/04/17 06:00:29;;;;;;;6.13;5.63;;;;;;;2.80;100.00;102694.13;5066992;28;20067;-80
2022/04/17 06:03:02;;;;;;;5.20;4.80;;;;;;;3.02;100.00;102695.16;5053997;28;20060;-80
2022/04/17 06:05:36;;;;;;;5.05;4.68;;;;;;;3.20;100.00;102691.31;5057907;28;20048;-80
2022/04/17 06:08:09;;;;;;;4.68;4.38;;;;;;;3.38;100.00;102689.16;5045579;28;20033;-80
2022/04/17 06:10:42;;;;;;;3.45;3.25;;;;;;;3.56;100.00;102693.34;5047513;28;20049;-80
2022/04/17 06:13:16;;;;;;;4.05;3.75;;;;;;;3.76;100.00;102690.97;5063897;28;20064;-80
2022/04/17 06:15:49;;;;;;;3.53;3.33;;;;;;;3.92;100.00;102688.13;5051992;28;20049;-80
2022/04/17 06:18:17;;;;;;;3.60;3.40;;;;;;;4.06;100.00;102677.50;5040949;28;20063;-81
2022/04/17 06:20:51;;;;;;;3.30;3.10;;;;;;;4.26;100.00;102683.16;5058381;28;20055;-81
2022/04/17 06:23:24;;;;;;;3.10;2.90;;;;;;;4.41;100.00;102683.97;5051744;28;20049;-80
2022/04/17 06:25:57;;;;;;;2.80;2.60;;;;;;;4.52;100.00;102677.25;5054764;28;20050;-80
2022/04/17 06:28:31;;;;;;;2.00;1.90;;;;;;;4.63;100.00;102681.31;5050035;28;20432;-80
2022/04/17 06:31:07;;;;;;;1.80;1.70;;;;;;;4.72;100.00;102684.72;5047475;28;20036;-81
2022/04/17 06:33:40;;;;;;;1.60;1.50;;;;;;;4.84;100.00;102688.59;5046986;28;20075;-80
2022/04/17 06:36:13;;;;;;;1.30;1.30;;;;;;;4.98;100.00;102683.31;5046544;28;20405;-80
2022/04/17 06:38:46;;;;;;;1.33;1.27;;;;;;;5.06;100.00;102675.94;5049350;28;20049;-80
2022/04/17 06:41:19;;;;;;;1.10;1.10;;;;;;;5.21;100.00;102673.16;5053312;28;20054;-81
2022/04/17 06:43:53;;;;;;;1.08;1.08;;;;;;;5.31;100.00;102674.69;5051369;28;20082;-80
2022/04/17 06:46:27;;;;;;;1.00;1.00;;;;;;;5.43;100.00;102681.22;5051677;28;20049;-81
2022/04/17 06:49:00;;;;;;;0.90;0.90;;;;;;;5.55;100.00;102671.56;5048382;28;20612;-81
2022/04/17 06:51:33;;;;;;;1.00;1.00;;;;;;;5.69;100.00;102671.63;5035333;28;20053;-81
2022/04/17 06:54:01;;;;;;;0.90;0.90;;;;;;;5.94;100.00;102662.03;5038977;28;20057;-81
2022/04/17 06:56:34;;;;;;;0.60;0.60;;;;;;;5.95;100.00;102654.75;5043053;28;20041;-80
2022/04/17 06:59:05;;;;;;;0.63;0.63;;;;;;;6.10;100.00;102662.75;5039780;28;20044;-80
2022/04/17 07:01:38;;;;;;;0.60;0.60;;;;;;;6.21;100.00;102664.03;5050966;28;20650;-81
2022/04/17 07:04:11;;;;;;;0.60;0.60;;;;;;;6.33;100.00;102658.91;5055249;28;20400;-80
2022/04/17 07:06:45;;;;;;;0.55;0.55;;;;;;;6.54;100.00;102666.88;5047594;28;20048;-79
2022/04/17 07:09:13;;;;;;;1.02;0.70;;;;;;;6.56;100.00;102659.41;5051789;28;20061;-79
2022/04/17 07:11:41;;;;;;;0.57;0.57;;;;;;;6.56;100.00;102659.41;5042754;28;20044;-80
2022/04/17 07:14:16;;;;;;;0.60;0.60;;;;;;;6.74;100.00;102668.78;5042691;28;20401;-81
2022/04/17 07:16:46;;;;;;;0.50;0.50;;;;;;;6.72;100.00;102660.88;5056179;28;20044;-83
2022/04/17 07:19:20;;;;;;;0.50;0.50;;;;;;;6.77;100.00;102655.69;5050461;28;20059;-81
2022/04/17 07:21:53;;;;;;;0.60;0.60;;;;;;;6.88;100.00;102650.72;5059922;28;20041;-77
2022/04/17 07:24:24;;;;;;;0.50;0.50;;;;;;;6.86;100.00;102650.06;5045557;28;20512;-80
2022/04/17 07:26:58;;;;;;;0.50;0.50;;;;;;;7.02;100.00;102648.84;5046967;28;20091;-79
2022/04/17 07:29:27;;;;;;;0.50;0.50;;;;;;;7.02;98.68;102644.25;5042742;28;20040;-79
2022/04/17 07:32:01;;;;;;;0.43;0.43;;;;;;;7.10;93.00;102635.94;5040970;28;20056;-79
2022/04/17 07:34:34;;;;;;;0.50;0.50;;;;;;;7.34;86.19;102628.22;5042341;28;20041;-79
2022/04/17 07:37:02;;;;;;;0.30;0.30;;;;;;;7.38;89.44;102631.34;5047717;28;20052;-78
2022/04/17 07:39:31;;;;;;;0.40;0.40;;;;;;;7.49;86.76;102619.84;5039500;28;20061;-78
2022/04/17 07:42:00;;;;;;;0.40;0.40;;;;;;;7.74;88.63;102638.97;5044682;28;20482;-80
2022/04/17 07:44:35;;;;;;;0.47;0.47;;;;;;;7.74;80.40;102636.25;5045008;28;20056;-78
2022/04/17 07:47:09;;;;;;;0.40;0.40;;;;;;;7.63;78.86;102624.19;5036500;28;20046;-78
2022/04/17 07:49:42;;;;;;;0.43;0.40;;;;;;;7.51;80.90;102630.47;5040337;28;20048;-79
2022/04/17 07:52:15;;;;;;;0.40;0.40;;;;;;;7.75;80.94;102631.69;5038052;28;20498;-79
2022/04/17 07:54:49;;;;;;;0.40;0.40;;;;;;;7.66;77.29;102636.50;5035768;28;20076;-79
2022/04/17 07:57:22;;;;;;;0.50;0.50;;;;;;;7.81;79.52;102637.06;5041702;28;20049;-78
2022/04/17 07:59:55;;;;;;;0.40;0.40;;;;;;;8.05;94.52;102637.44;5043397;28;20049;-79
2022/04/17 08:02:50;;;;;;;0.60;0.50;;;;;;;8.10;95.24;102640.31;5044026;28;20045;-79
2022/04/17 08:05:23;;;;;;;0.50;0.40;;;;;;;8.07;82.02;102627.19;5043252;28;20041;-78
2022/04/17 08:07:56;;;;;;;0.43;0.43;;;;;;;8.16;77.37;102628.63;5046527;28;20046;-78
2022/04/17 08:10:30;;;;;;;0.40;0.40;;;;;;;8.04;77.21;102629.47;5043612;28;20043;-78
2022/04/17 08:12:58;;;;;;;0.50;0.50;;;;;;;8.10;77.88;102626.75;5046942;28;20075;-79
2022/04/17 08:15:33;;;;;;;0.63;0.40;;;;;;;8.15;77.07;102620.69;5047233;28;20044;-79
2022/04/17 08:18:06;;;;;;;0.40;0.40;;;;;;;8.30;77.59;102620.41;5046877;28;20054;-78
2022/04/17 08:20:34;;;;;;;0.52;0.50;;;;;;;8.43;70.33;102622.22;5045280;28;20045;-79
2022/04/17 08:23:07;;;;;;;0.35;0.35;;;;;;;8.41;67.73;102616.16;5039427;28;20658;-79
2022/04/17 08:25:35;;;;;;;0.40;0.40;;;;;;;8.42;68.00;102615.94;5041934;28;20052;-78
2022/04/17 08:28:04;;;;;;;0.40;0.40;;;;;;;8.48;71.31;102608.88;5038596;28;20429;-79
2022/04/17 08:30:38;;;;;;;0.40;0.40;;;;;;;8.50;69.01;102604.88;5031516;28;20053;-78
2022/04/17 08:33:12;;;;;;;0.30;0.30;;;;;;;8.72;71.03;102590.13;5035755;28;20064;-78
2022/04/17 08:35:46;;;;;;;0.30;0.30;;;;;;;8.77;59.59;102609.28;5035740;28;20052;-79
2022/04/17 08:38:21;;;;;;;0.38;0.38;;;;;;;8.77;60.35;102602.00;5052256;28;20053;-79
2022/04/17 08:40:58;;;;;;;0.30;0.30;;;;;;;8.77;61.18;102595.72;5033718;28;20096;-78
2022/04/17 08:43:32;;;;;;;0.30;0.30;;;;;;;8.87;55.15;102590.63;5039080;28;20044;-78
2022/04/17 08:46:06;;;;;;;0.63;0.40;;;;;;;8.83;62.01;102598.38;5034383;28;20071;-78
2022/04/17 08:48:36;;;;;;;0.30;0.30;;;;;;;9.05;71.47;102598.00;5029461;28;20045;-77
2022/04/17 08:51:10;;;;;;;0.95;0.30;;;;;;;9.09;65.76;102592.97;5032701;28;20531;-79
2022/04/17 08:53:40;;;;;;;0.30;0.30;;;;;;;9.16;64.13;102593.72;5048093;28;21536;-78
2022/04/17 08:56:14;;;;;;;0.30;0.30;;;;;;;9.35;69.91;102595.41;5033338;28;20057;-78
2022/04/17 08:58:43;;;;;;;0.35;0.32;;;;;;;9.32;63.87;102581.44;5040001;28;20489;-79
2022/04/17 09:01:19;;;;;;;0.40;0.40;;;;;;;9.50;60.83;102580.63;5029925;28;20060;-79
2022/04/17 09:03:48;;;;;;;0.32;0.32;;;;;;;9.33;59.28;102580.41;5035694;28;20440;-79
2022/04/17 09:06:20;;;;;;;0.32;0.32;;;;;;;9.30;66.02;102573.50;5039223;28;21545;-79
2022/04/17 09:09:01;;;;;;;0.30;0.30;;;;;;;9.66;62.47;102568.34;5037726;28;20064;-78
2022/04/17 09:11:35;;;;;;;0.30;0.30;;;;;;;9.81;59.47;102560.59;5042491;28;20057;-79
2022/04/17 09:14:20;;;;;;;0.32;0.30;;;;;;;9.67;58.82;102562.66;5032823;28;20069;-79
2022/04/17 09:16:54;;;;;;;0.30;0.30;;;;;;;9.80;58.18;102567.09;5052427;28;20469;-79
2022/04/17 09:19:28;;;;;;;0.30;0.30;;;;;;;9.94;62.62;102566.94;5046901;28;20061;-83
2022/04/17 09:22:02;;;;;;;0.30;0.30;;;;;;;10.08;53.80;102567.59;5047055;28;20055;-78
2022/04/17 09:24:36;;;;;;;0.38;0.20;;;;;;;9.98;52.15;102549.09;5045820;28;20389;-79
2022/04/17 09:27:06;;;;;;;0.20;0.20;;;;;;;10.02;55.23;102553.84;5060060;28;20038;-81
2022/04/17 09:29:39;;;;;;;0.30;0.30;;;;;;;10.02;59.58;102553.84;5063556;28;20048;-80
2022/04/17 09:32:12;;;;;;;0.30;0.30;;;;;;;10.05;57.29;102547.13;5040609;28;20049;-79
2022/04/17 09:34:49;;;;;;;0.30;0.30;;;;;;;10.18;55.92;102548.84;5043823;28;20048;-81
2022/04/17 09:37:23;;;;;;;0.63;0.30;;;;;;;10.34;55.74;102542.78;5052755;28;20052;-79
2022/04/17 09:39:53;;;;;;;0.20;0.20;;;;;;;10.40;55.23;102541.00;5052655;28;20053;-79
2022/04/17 09:42:29;;;;;;;0.30;0.30;;;;;;;10.48;49.42;102537.94;5043154;28;20670;-80
2022/04/17 09:44:57;;;;;;;0.30;0.30;;;;;;;10.49;52.90;102531.41;5046812;28;20485;-79
2022/04/17 09:47:32;;;;;;;0.40;0.40;;;;;;;10.45;54.08;102532.94;5045563;28;21700;-80
2022/04/17 09:50:07;;;;;;;0.30;0.30;;;;;;;10.65;55.18;102527.19;5046918;28;20055;-80
2022/04/17 09:52:40;;;;;;;0.43;0.22;;;;;;;10.62;56.46;102515.94;5062923;28;20056;-80
2022/04/17 09:55:14;;;;;;;0.30;0.30;;;;;;;10.68;61.52;102524.00;5048410;28;20049;-79
2022/04/17 09:57:43;;;;;;;0.30;0.30;;;;;;;10.64;56.68;102519.28;5044108;28;20068;-79
2022/04/17 10:00:18;;;;;;;0.75;0.50;;;;;;;10.59;60.96;102508.25;5042738;28;20053;-80
2022/04/17 10:02:53;;;;;;;0.30;0.30;;;;;;;10.61;60.55;102495.25;5043010;28;20041;-80
2022/04/17 10:05:22;;;;;;;0.30;0.30;;;;;;;10.69;53.80;102492.19;5042471;28;20048;-79
2022/04/17 10:07:50;;;;;;;0.30;0.30;;;;;;;11.03;59.80;102495.97;5041050;28;20047;-80
2022/04/17 10:10:19;;;;;;;0.30;0.30;;;;;;;10.85;55.74;102496.06;5044984;28;20056;-79
2022/04/17 10:12:54;;;;;;;0.50;0.30;;;;;;;10.84;54.40;102497.97;5043685;28;20045;-79
2022/04/17 10:15:22;;;;;;;0.30;0.30;;;;;;;10.94;59.02;102491.94;5045274;28;20045;-79
2022/04/17 10:18:01;;;;;;;0.30;0.30;;;;;;;10.96;51.95;102478.88;5048636;28;20064;-80
2022/04/17 10:20:34;;;;;;;0.30;0.30;;;;;;;10.96;59.28;102476.16;5017466;28;20041;-80
2022/04/17 10:23:10;;;;;;;0.22;0.22;;;;;;;10.93;56.34;102478.56;5041802;28;20048;-79
2022/04/17 10:25:42;;;;;;;0.20;0.20;;;;;;;10.83;55.13;102468.25;5045384;28;20079;-79
2022/04/17 10:28:17;;;;;;;0.40;0.40;;;;;;;11.03;57.47;102465.13;5029886;28;20049;-79
2022/04/17 10:31:01;;;;;;;0.30;0.30;;;;;;;11.10;49.85;102462.28;5044956;28;20174;-79
2022/04/17 10:33:53;;;;;;;0.30;0.30;;;;;;;11.28;51.68;102464.84;5028957;28;20041;-80
2022/04/17 10:36:29;;;;;;;0.35;0.35;;;;;;;11.11;53.26;102459.31;5028888;28;20531;-80
2022/04/17 10:39:13;;;;;;;0.30;0.30;;;;;;;11.17;52.61;102452.09;5028132;28;20055;-79
2022/04/17 10:41:42;;;;;;;0.65;0.30;;;;;;;11.38;53.50;102447.91;5029166;28;21792;-79
2022/04/17 10:44:16;;;;;;;0.38;0.30;;;;;;;11.40;49.36;102443.03;5032424;28;20068;-80
2022/04/17 10:46:51;;;;;;;0.40;0.40;;;;;;;11.50;49.85;102442.41;5028030;28;20053;-80
2022/04/17 10:49:28;;;;;;;0.30;0.30;;;;;;;11.31;47.66;102423.50;5030070;28;20049;-80
2022/04/17 10:52:02;;;;;;;0.30;0.30;;;;;;;11.34;55.13;102420.28;5033192;28;21726;-81
2022/04/17 10:54:48;;;;;;;0.57;0.40;;;;;;;11.59;52.19;102402.78;5031866;28;20425;-80
2022/04/17 10:57:22;;;;;;;0.47;0.40;;;;;;;11.82;49.18;102392.78;5035971;28;20060;-81
2022/04/17 11:00:26;;;;;;;0.30;0.30;;;;;;;11.53;51.40;102395.56;5027928;28;20057;-80
2022/04/17 11:03:01;;;;;;;0.20;0.20;;;;;;;11.46;53.77;102395.72;5029737;28;20059;-79
2022/04/17 11:06:08;;;;;;;0.35;0.30;;;;;;;11.53;50.31;102376.47;5030929;28;20052;-79
2022/04/17 11:08:46;;;;;;;0.30;0.30;;;;;;;11.64;53.77;102372.03;5024557;28;20053;-78
2022/04/17 11:11:14;;;;;;;0.77;0.30;;;;;;;11.92;58.49;102376.63;5027335;28;20049;-79
2022/04/17 11:14:11;;;;;;;0.30;0.30;;;;;;;11.83;47.39;102375.38;5029176;28;20044;-78
2022/04/17 11:16:49;;;;;;;0.40;0.40;;;;;;;11.67;44.43;102379.72;5026990;28;20060;-79
2022/04/17 11:19:24;;;;;;;0.20;0.20;;;;;;;11.67;46.32;102382.44;5021694;28;20049;-79
2022/04/17 11:22:01;;;;;;;0.30;0.30;;;;;;;11.79;49.70;102388.66;5035545;28;20397;-80
2022/04/17 11:25:03;;;;;;;0.30;0.30;;;;;;;11.91;50.48;102392.16;5029329;28;20068;-80
2022/04/17 11:27:40;;;;;;;1.40;0.40;;;;;;;11.93;49.25;102386.44;5029942;28;20053;-79
2022/04/17 11:30:32;;;;;;;0.40;0.40;;;;;;;11.89;50.37;102394.31;5029987;28;20059;-79
2022/04/17 11:33:08;;;;;;;0.40;0.30;;;;;;;11.89;46.87;102388.00;5030660;28;20056;-78
2022/04/17 11:35:36;;;;;;;0.30;0.30;;;;;;;11.94;48.54;102385.41;5026008;28;20029;-78
2022/04/17 11:38:08;;;;;;;0.30;0.30;;;;;;;11.92;46.55;102384.81;5025629;28;20056;-79
2022/04/17 11:40:44;;;;;;;0.30;0.30;;;;;;;12.10;48.38;102381.03;5028698;28;20052;-79
2022/04/17 11:43:14;;;;;;;0.30;0.30;;;;;;;11.97;45.55;102381.34;5028495;28;20335;-79
2022/04/17 11:45:48;;;;;;;0.40;0.30;;;;;;;12.00;48.55;102384.44;5028187;28;20049;-80
2022/04/17 11:48:21;;;;;;;0.30;0.30;;;;;;;12.08;44.51;102386.75;5042928;28;20417;-78
2022/04/17 11:50:54;;;;;;;0.70;0.70;;;;;;;12.13;40.52;102374.25;5028642;28;20048;-79
2022/04/17 11:53:24;;;;;;;0.30;0.30;;;;;;;12.09;45.13;102376.66;5033292;28;20072;-79
2022/04/17 11:55:52;;;;;;;0.20;0.20;;;;;;;11.92;41.32;102376.63;5036916;28;20048;-79
2022/04/17 11:58:28;;;;;;;0.55;0.55;;;;;;;12.10;44.00;102381.03;5031652;28;20536;-79
2022/04/17 12:01:05;;;;;;;0.30;0.30;;;;;;;12.17;39.83;102378.16;5024887;28;20061;-80
2022/04/17 12:03:35;;;;;;;0.20;0.20;;;;;;;12.25;41.44;102370.34;5027664;28;20049;-79
2022/04/17 12:06:06;;;;;;;0.30;0.30;;;;;;;12.40;46.03;102369.75;5030532;28;20064;-79